createdAt,value
2022-12-23T00:00:22.698Z,99190.53
2022-12-23T00:01:24.553Z,99178.22
2022-12-23T00:02:26.125Z,99181.84
2022-12-23T00:03:28.115Z,99186.59
2022-12-23T00:04:29.782Z,99180.69
2022-12-23T00:05:37.384Z,99187.13
2022-12-23T00:06:39.363Z,99192.72
2022-12-23T00:07:40.964Z,99189.91
2022-12-23T00:08:42.501Z,99183.69
2022-12-23T00:09:44.017Z,99188.47
2022-12-23T00:10:45.608Z,99183.69
2022-12-23T00:12:05.618Z,99190.63
2022-12-23T00:13:26.128Z,99184.22
2022-12-23T00:14:46.420Z,99185.34
2022-12-23T00:15:47.926Z,99180.28
2022-12-23T00:16:50.424Z,99199.03
2022-12-23T00:17:52.210Z,99183.69
2022-12-23T00:18:54.276Z,99190.13
2022-12-23T00:19:55.813Z,99185.66
2022-12-23T00:21:01.082Z,99185.34
2022-12-23T00:22:04.890Z,99176.97
2022-12-23T00:23:06.456Z,99177.06
2022-12-23T00:24:08.007Z,99179.94
2022-12-23T00:25:09.548Z,99175.56
2022-12-23T00:26:17.522Z,99171.66
2022-12-23T00:27:19.051Z,99167.81
2022-12-23T00:28:21.451Z,99175.06
2022-12-23T00:29:22.973Z,99171.44
2022-12-23T00:30:24.492Z,99170.66
2022-12-23T00:31:26.125Z,99171.75
2022-12-23T00:32:27.704Z,99174.75
2022-12-23T00:33:30.190Z,99159.41
2022-12-23T00:34:31.752Z,99169.38
2022-12-23T00:35:33.300Z,99172.47
2022-12-23T00:36:34.850Z,99172.78
2022-12-23T00:37:36.360Z,99173.16
2022-12-23T00:38:56.586Z,99171.13
2022-12-23T00:40:27.385Z,99174.97
2022-12-23T00:41:47.376Z,99174.34
2022-12-23T00:42:54.878Z,99171.25
2022-12-23T00:43:56.574Z,99171.03
2022-12-23T00:45:15.714Z,99174.97
2022-12-23T00:46:17.606Z,99179.50
2022-12-23T00:47:37.771Z,99181.69
2022-12-23T00:48:58.070Z,99181.63
2022-12-23T00:49:59.547Z,99180.19
2022-12-23T00:51:01.072Z,99180.47
2022-12-23T00:52:02.845Z,99185.25
2022-12-23T00:53:04.744Z,99186.16
2022-12-23T00:54:06.235Z,99181.63
2022-12-23T00:55:08.031Z,99182.72
2022-12-23T00:56:09.542Z,99184.19
2022-12-23T00:57:11.035Z,99175.06
2022-12-23T00:58:12.544Z,99188.22
2022-12-23T00:59:14.086Z,99181.56
2022-12-23T01:00:15.706Z,99184.09
2022-12-23T01:01:36.031Z,99181.28
2022-12-23T01:02:56.266Z,99186.31
2022-12-23T01:04:16.356Z,99195.28
2022-12-23T01:05:36.380Z,99196.91
2022-12-23T01:06:37.942Z,99211.31
2022-12-23T01:07:39.443Z,99213.75
2022-12-23T01:08:42.128Z,99214.78
2022-12-23T01:09:43.649Z,99213.84
2022-12-23T01:10:45.127Z,99208.50
2022-12-23T01:11:46.614Z,99207.03
2022-12-23T01:12:48.143Z,99211.19
2022-12-23T01:13:49.607Z,99206.09
2022-12-23T01:14:51.174Z,99201.84
2022-12-23T01:15:53.197Z,99205.22
2022-12-23T01:16:54.783Z,99206.34
2022-12-23T01:17:56.316Z,99212.47
2022-12-23T01:18:58.589Z,99213.28
2022-12-23T01:20:00.093Z,99217.44
2022-12-23T01:21:02.889Z,99216.81
2022-12-23T01:22:04.495Z,99221.28
2022-12-23T01:23:06.153Z,99217.13
2022-12-23T01:24:07.818Z,99220.22
2022-12-23T01:25:09.555Z,99221.88
2022-12-23T01:26:11.147Z,99225.22
2022-12-23T01:27:12.636Z,99226.88
2022-12-23T01:28:14.084Z,99222.63
2022-12-23T01:29:15.614Z,99222.34
2022-12-23T01:30:17.172Z,99229.59
2022-12-23T01:31:18.720Z,99227.31
2022-12-23T01:32:20.298Z,99245.25
2022-12-23T01:33:21.952Z,99237.38
2022-12-23T01:34:23.451Z,99242.97
2022-12-23T01:35:24.930Z,99246.28
2022-12-23T01:36:26.465Z,99246.28
2022-12-23T01:37:28.029Z,99247.94
2022-12-23T01:38:29.750Z,99253.22
2022-12-23T01:39:31.201Z,99258.81
2022-12-23T01:40:39.995Z,99261.31
2022-12-23T01:42:00.219Z,99271.38
2022-12-23T01:43:01.691Z,99271.09
2022-12-23T01:44:03.223Z,99271.91
2022-12-23T01:45:18.197Z,99272.75
2022-12-23T01:46:19.778Z,99267.97
2022-12-23T01:47:26.704Z,99269.63
2022-12-23T01:48:28.234Z,99262.38
2022-12-23T01:49:29.763Z,99282.50
2022-12-23T01:50:32.652Z,99274.09
2022-12-23T01:51:34.174Z,99279.69
2022-12-23T01:52:43.420Z,99281.34
2022-12-23T01:53:46.153Z,99284.16
2022-12-23T01:54:47.675Z,99285.81
2022-12-23T01:55:53.172Z,99290.59
2022-12-23T01:56:54.656Z,99281.03
2022-12-23T01:57:56.891Z,99292.25
2022-12-23T01:59:02.595Z,99291.09
2022-12-23T02:00:22.800Z,99296.69
2022-12-23T02:01:43.208Z,99293.06
2022-12-23T02:03:03.546Z,99288.59
2022-12-23T02:04:06.126Z,99295.34
2022-12-23T02:05:07.790Z,99292.53
2022-12-23T02:06:33.735Z,99292.84
2022-12-23T02:07:53.912Z,99289.75
2022-12-23T02:09:14.193Z,99292.53
2022-12-23T02:10:15.672Z,99288.09
2022-12-23T02:11:31.944Z,99293.69
2022-12-23T02:12:45.765Z,99292.53
2022-12-23T02:14:07.198Z,99296.19
2022-12-23T02:15:46.112Z,99300.94
2022-12-23T02:16:51.095Z,99296.50
2022-12-23T02:17:52.588Z,99299.28
2022-12-23T02:18:54.080Z,99296.50
2022-12-23T02:19:58.572Z,99300.94
2022-12-23T02:21:02.904Z,99305.72
2022-12-23T02:22:18.513Z,99302.91
2022-12-23T02:23:38.286Z,99313.28
2022-12-23T02:24:51.483Z,99316.09
2022-12-23T02:26:11.634Z,99316.09
2022-12-23T02:27:13.166Z,99317.22
2022-12-23T02:28:14.580Z,99320.03
2022-12-23T02:29:21.854Z,99315.56
2022-12-23T02:30:25.846Z,99321.16
2022-12-23T02:31:47.623Z,99325.09
2022-12-23T02:33:03.907Z,99327.97
2022-12-23T02:34:23.955Z,99325.78
2022-12-23T02:35:28.524Z,99326.63
2022-12-23T02:36:43.260Z,99325.78
2022-12-23T02:37:58.387Z,99334.19
2022-12-23T02:39:01.770Z,99337.81
2022-12-23T02:40:10.808Z,99336.97
2022-12-23T02:41:12.291Z,99336.16
2022-12-23T02:42:16.828Z,99333.66
2022-12-23T02:43:21.311Z,99338.13
2022-12-23T02:44:38.250Z,99334.50
2022-12-23T02:45:41.915Z,99340.91
2022-12-23T02:46:47.276Z,99345.69
2022-12-23T02:47:59.823Z,99348.78
2022-12-23T02:49:13.584Z,99348.78
2022-12-23T02:50:16.897Z,99353.03
2022-12-23T02:51:18.359Z,99349.41
2022-12-23T02:52:21.222Z,99357.81
2022-12-23T02:53:25.138Z,99364.50
2022-12-23T02:54:30.522Z,99368.44
2022-12-23T02:55:33.053Z,99365.97
2022-12-23T02:56:34.738Z,99365.97
2022-12-23T02:57:36.920Z,99363.47
2022-12-23T02:58:41.032Z,99358.19
2022-12-23T02:59:46.359Z,99366.06
2022-12-23T03:00:47.860Z,99364.09
2022-12-23T03:01:49.527Z,99359.94
2022-12-23T03:02:51.336Z,99371.97
2022-12-23T03:03:53.085Z,99375.88
2022-12-23T03:04:54.705Z,99383.44
2022-12-23T03:05:56.186Z,99372.53
2022-12-23T03:07:01.718Z,99387.66
2022-12-23T03:08:13.164Z,99380.41
2022-12-23T03:09:16.558Z,99378.75
2022-12-23T03:10:36.493Z,99381.53
2022-12-23T03:11:58.234Z,99381.03
2022-12-23T03:13:04.836Z,99386.91
2022-12-23T03:14:11.874Z,99385.56
2022-12-23T03:15:17.670Z,99385.56
2022-12-23T03:16:37.408Z,99395.09
2022-12-23T03:17:50.789Z,99401.81
2022-12-23T03:19:07.557Z,99391.53
2022-12-23T03:20:20.525Z,99397.94
2022-12-23T03:21:40.716Z,99398.56
2022-12-23T03:23:08.747Z,99404.47
2022-12-23T03:24:30.508Z,99394.72
2022-12-23T03:25:40.519Z,99394.19
2022-12-23T03:26:48.331Z,99402.00
2022-12-23T03:27:55.449Z,99403.16
2022-12-23T03:28:58.458Z,99393.09
2022-12-23T03:30:01.744Z,99397.63
2022-12-23T03:31:03.585Z,99404.38
2022-12-23T03:32:05.064Z,99408.00
2022-12-23T03:33:13.766Z,99395.97
2022-12-23T03:34:15.559Z,99405.50
2022-12-23T03:35:17.739Z,99403.00
2022-12-23T03:36:21.484Z,99417.63
2022-12-23T03:37:23.131Z,99421.53
2022-12-23T03:38:24.703Z,99423.19
2022-12-23T03:39:28.991Z,99425.69
2022-12-23T03:40:37.240Z,99425.69
2022-12-23T03:41:40.109Z,99429.31
2022-12-23T03:42:41.795Z,99427.34
2022-12-23T03:43:50.465Z,99428.19
2022-12-23T03:45:28.054Z,99431.84
2022-12-23T03:46:18.091Z,99424.88
2022-12-23T03:47:22.215Z,99426.53
2022-12-23T03:48:23.784Z,99414.50
2022-12-23T03:49:30.226Z,99427.66
2022-12-23T03:50:31.783Z,99426.84
2022-12-23T03:51:34.743Z,99416.78
2022-12-23T03:52:48.085Z,99422.38
2022-12-23T03:53:54.417Z,99416.78
2022-12-23T03:54:57.955Z,99410.34
2022-12-23T03:56:00.310Z,99426.00
2022-12-23T03:57:02.663Z,99430.75
2022-12-23T03:58:09.998Z,99436.34
2022-12-23T03:59:18.405Z,99441.41
2022-12-23T04:00:19.958Z,99442.25
2022-12-23T04:01:26.050Z,99440.88
2022-12-23T04:02:36.177Z,99444.50
2022-12-23T04:03:46.568Z,99445.34
2022-12-23T04:04:55.404Z,99444.50
2022-12-23T04:05:57.941Z,99449.81
2022-12-23T04:07:00.545Z,99447.00
2022-12-23T04:08:07.776Z,99452.59
2022-12-23T04:09:10.099Z,99456.53
2022-12-23T04:10:12.583Z,99449.28
2022-12-23T04:11:14.078Z,99467.72
2022-12-23T04:12:15.633Z,99465.75
2022-12-23T04:13:17.095Z,99452.59
2022-12-23T04:14:18.776Z,99465.44
2022-12-23T04:15:21.209Z,99458.19
2022-12-23T04:16:22.953Z,99455.41
2022-12-23T04:17:24.468Z,99450.94
2022-12-23T04:18:25.961Z,99447.00
2022-12-23T04:19:27.451Z,99442.56
2022-12-23T04:20:28.943Z,99434.16
2022-12-23T04:21:30.645Z,99444.81
2022-12-23T04:22:32.146Z,99445.34
2022-12-23T04:23:33.612Z,99447.00
2022-12-23T04:24:35.108Z,99447.00
2022-12-23T04:25:36.757Z,99456.22
2022-12-23T04:26:38.346Z,99450.34
2022-12-23T04:27:39.965Z,99455.94
2022-12-23T04:28:41.488Z,99451.16
2022-12-23T04:29:43.242Z,99450.34
2022-12-23T04:30:44.723Z,99461.53
2022-12-23T04:31:46.306Z,99461.81
2022-12-23T04:32:47.910Z,99454.25
2022-12-23T04:33:49.480Z,99459.84
2022-12-23T04:34:51.035Z,99455.94
2022-12-23T04:35:52.580Z,99464.00
2022-12-23T04:36:54.136Z,99452.91
2022-12-23T04:37:55.626Z,99454.88
2022-12-23T04:38:57.161Z,99457.06
2022-12-23T04:39:58.626Z,99460.38
2022-12-23T04:41:00.160Z,99449.72
2022-12-23T04:42:01.688Z,99451.44
2022-12-23T04:43:03.188Z,99450.00
2022-12-23T04:44:04.752Z,99457.28
2022-12-23T04:45:06.535Z,99460.28
2022-12-23T04:46:08.136Z,99464.75
2022-12-23T04:47:09.734Z,99455.84
2022-12-23T04:48:11.394Z,99459.16
2022-12-23T04:49:12.953Z,99454.94
2022-12-23T04:50:14.767Z,99461.97
2022-12-23T04:51:16.301Z,99460.81
2022-12-23T04:52:17.767Z,99461.66
2022-12-23T04:53:19.251Z,99445.25
2022-12-23T04:54:20.779Z,99458.09
2022-12-23T04:55:22.289Z,99450.25
2022-12-23T04:56:23.854Z,99455.59
2022-12-23T04:57:25.368Z,99451.69
2022-12-23T04:58:27.020Z,99454.75
2022-12-23T04:59:28.638Z,99454.75
2022-12-23T05:00:35.497Z,99453.34
2022-12-23T05:01:42.841Z,99453.66
2022-12-23T05:02:44.630Z,99458.09
2022-12-23T05:03:46.321Z,99466.72
2022-12-23T05:04:47.795Z,99463.94
2022-12-23T05:05:49.290Z,99473.22
2022-12-23T05:06:50.800Z,99474.91
2022-12-23T05:07:52.329Z,99480.25
2022-12-23T05:08:53.852Z,99490.09
2022-12-23T05:09:55.398Z,99483.88
2022-12-23T05:10:56.988Z,99485.56
2022-12-23T05:11:58.481Z,99478.06
2022-12-23T05:12:59.984Z,99478.91
2022-12-23T05:14:01.546Z,99478.28
2022-12-23T05:15:03.024Z,99483.34
2022-12-23T05:16:04.739Z,99486.38
2022-12-23T05:17:07.919Z,99481.63
2022-12-23T05:18:09.689Z,99478.50
2022-12-23T05:19:11.330Z,99487.97
2022-12-23T05:20:12.862Z,99472.53
2022-12-23T05:21:14.364Z,99473.06
2022-12-23T05:22:15.853Z,99473.06
2022-12-23T05:23:17.471Z,99476.41
2022-12-23T05:24:18.975Z,99477.25
2022-12-23T05:25:20.574Z,99476.41
2022-12-23T05:26:22.062Z,99478.63
2022-12-23T05:27:23.533Z,99487.25
2022-12-23T05:28:25.060Z,99485.28
2022-12-23T05:29:26.523Z,99482.78
2022-12-23T05:30:28.085Z,99487.00
2022-12-23T05:31:29.657Z,99481.41
2022-12-23T05:32:31.215Z,99471.66
2022-12-23T05:33:32.914Z,99481.53
2022-12-23T05:34:34.458Z,99483.53
2022-12-23T05:35:35.989Z,99483.28
2022-12-23T05:36:37.520Z,99483.28
2022-12-23T05:37:39.068Z,99478.06
2022-12-23T05:38:40.556Z,99477.47
2022-12-23T05:39:42.065Z,99474.38
2022-12-23T05:40:43.651Z,99482.19
2022-12-23T05:41:45.873Z,99471.84
2022-12-23T05:42:47.472Z,99492.22
2022-12-23T05:43:48.988Z,99485.25
2022-12-23T05:44:50.525Z,99492.81
2022-12-23T05:45:52.180Z,99492.97
2022-12-23T05:46:53.736Z,99485.78
2022-12-23T05:47:55.232Z,99487.47
2022-12-23T05:48:56.716Z,99484.00
2022-12-23T05:49:58.381Z,99478.06
2022-12-23T05:50:59.949Z,99485.56
2022-12-23T05:52:01.452Z,99476.84
2022-12-23T05:53:03.001Z,99472.63
2022-12-23T05:54:04.541Z,99477.59
2022-12-23T05:55:06.268Z,99475.34
2022-12-23T05:56:07.885Z,99467.47
2022-12-23T05:57:09.413Z,99471.06
2022-12-23T05:58:10.966Z,99475.53
2022-12-23T05:59:12.551Z,99478.31
2022-12-23T06:00:14.425Z,99489.50
2022-12-23T06:01:15.904Z,99481.88
2022-12-23T06:02:17.512Z,99484.97
2022-12-23T06:03:19.274Z,99469.53
2022-12-23T06:04:20.993Z,99474.38
2022-12-23T06:05:22.512Z,99474.09
2022-12-23T06:06:24.055Z,99486.09
2022-12-23T06:07:25.636Z,99479.91
2022-12-23T06:08:27.157Z,99481.56
2022-12-23T06:09:28.640Z,99475.41
2022-12-23T06:10:30.173Z,99482.88
2022-12-23T06:11:31.652Z,99484.84
2022-12-23T06:12:33.200Z,99480.31
2022-12-23T06:13:34.699Z,99486.97
2022-12-23T06:14:36.223Z,99476.31
2022-12-23T06:15:37.710Z,99473.75
2022-12-23T06:16:39.315Z,99468.97
2022-12-23T06:17:40.995Z,99477.06
2022-12-23T06:18:42.688Z,99481.22
2022-12-23T06:19:44.213Z,99486.53
2022-12-23T06:20:47.783Z,99489.56
2022-12-23T06:21:49.309Z,99483.34
2022-12-23T06:22:50.891Z,99493.41
2022-12-23T06:23:52.618Z,99484.50
2022-12-23T06:24:54.128Z,99485.03
2022-12-23T06:25:58.917Z,99486.47
2022-12-23T06:27:00.503Z,99488.72
2022-12-23T06:28:01.950Z,99489.88
2022-12-23T06:29:03.801Z,99496.59
2022-12-23T06:30:05.544Z,99503.91
2022-12-23T06:31:07.078Z,99489.47
2022-12-23T06:32:08.670Z,99494.56
2022-12-23T06:33:10.215Z,99499.06
2022-12-23T06:34:11.732Z,99499.38
2022-12-23T06:35:13.460Z,99504.19
2022-12-23T06:36:14.993Z,99496.94
2022-12-23T06:37:16.464Z,99499.78
2022-12-23T06:38:17.967Z,99503.19
2022-12-23T06:39:20.116Z,99498.44
2022-12-23T06:40:21.600Z,99502.66
2022-12-23T06:41:23.084Z,99506.63
2022-12-23T06:42:24.545Z,99501.31
2022-12-23T06:43:26.017Z,99497.59
2022-12-23T06:44:27.542Z,99500.41
2022-12-23T06:45:29.048Z,99494.28
2022-12-23T06:46:30.653Z,99499.38
2022-12-23T06:47:32.235Z,99495.44
2022-12-23T06:48:33.736Z,99495.44
2022-12-23T06:49:35.277Z,99494.88
2022-12-23T06:50:37.109Z,99492.84
2022-12-23T06:51:38.615Z,99494.72
2022-12-23T06:52:40.166Z,99495.81
2022-12-23T06:53:41.718Z,99501.72
2022-12-23T06:54:43.211Z,99508.41
2022-12-23T06:55:44.703Z,99509.19
2022-12-23T06:56:46.212Z,99510.84
2022-12-23T06:57:47.703Z,99504.34
2022-12-23T06:58:49.357Z,99502.13
2022-12-23T06:59:50.848Z,99509.06
2022-12-23T07:00:52.371Z,99502.34
2022-12-23T07:01:53.940Z,99503.16
2022-12-23T07:02:55.663Z,99505.66
2022-12-23T07:03:57.468Z,99503.69
2022-12-23T07:04:58.934Z,99496.13
2022-12-23T07:06:00.432Z,99505.06
2022-12-23T07:07:01.930Z,99504.53
2022-12-23T07:08:03.370Z,99500.06
2022-12-23T07:09:04.913Z,99495.59
2022-12-23T07:10:06.786Z,99498.72
2022-12-23T07:11:08.665Z,99496.78
2022-12-23T07:12:10.229Z,99491.28
2022-12-23T07:13:11.765Z,99492.72
2022-12-23T07:14:13.254Z,99497.47
2022-12-23T07:15:14.723Z,99492.41
2022-12-23T07:16:16.275Z,99495.19
2022-12-23T07:17:17.814Z,99491.56
2022-12-23T07:18:19.294Z,99482.34
2022-12-23T07:19:20.741Z,99489.00
2022-12-23T07:20:22.292Z,99485.19
2022-12-23T07:21:29.065Z,99489.44
2022-12-23T07:22:31.209Z,99485.56
2022-12-23T07:23:32.657Z,99493.13
2022-12-23T07:24:34.143Z,99490.34
2022-12-23T07:25:35.676Z,99494.28
2022-12-23T07:26:37.229Z,99498.72
2022-12-23T07:27:38.738Z,99500.09
2022-12-23T07:28:40.291Z,99497.00
2022-12-23T07:29:41.823Z,99502.81
2022-12-23T07:30:43.360Z,99494.41
2022-12-23T07:31:44.926Z,99495.19
2022-12-23T07:32:49.489Z,99496.56
2022-12-23T07:33:51.280Z,99516.97
2022-12-23T07:34:52.727Z,99518.63
2022-12-23T07:36:00.208Z,99531.19
2022-12-23T07:37:02.038Z,99533.16
2022-12-23T07:38:03.532Z,99534.81
2022-12-23T07:39:05.109Z,99542.69
2022-12-23T07:40:08.933Z,99544.91
2022-12-23T07:41:10.654Z,99544.31
2022-12-23T07:43:34.554Z,99546.50
2022-12-23T07:44:36.029Z,99540.06
2022-12-23T07:45:37.638Z,99545.91
2022-12-23T07:46:39.326Z,99542.56
2022-12-23T07:47:40.816Z,99545.91
2022-12-23T07:48:42.418Z,99546.16
2022-12-23T07:49:43.880Z,99546.97
2022-12-23T07:50:45.374Z,99543.09
2022-12-23T07:51:46.865Z,99543.69
2022-12-23T07:52:48.380Z,99542.56
2022-12-23T07:53:50.337Z,99540.91
2022-12-23T07:54:51.815Z,99538.63
2022-12-23T07:55:56.561Z,99528.34
2022-12-23T07:56:58.778Z,99533.56
2022-12-23T07:58:00.259Z,99531.84
2022-12-23T07:59:01.739Z,99529.59
2022-12-23T08:00:04.724Z,99534.88
2022-12-23T08:01:14.030Z,99525.88
2022-12-23T08:02:15.721Z,99528.38
2022-12-23T08:03:17.501Z,99527.22
2022-12-23T08:04:19.167Z,99527.53
2022-12-23T08:05:20.798Z,99522.19
2022-12-23T08:06:22.367Z,99526.09
2022-12-23T08:07:23.820Z,99531.69
2022-12-23T08:08:25.290Z,99525.50
2022-12-23T08:09:26.907Z,99529.16
2022-12-23T08:10:28.669Z,99519.91
2022-12-23T08:11:30.209Z,99522.09
2022-12-23T08:12:31.870Z,99525.44
2022-12-23T08:13:34.176Z,99522.03
2022-12-23T08:14:35.704Z,99517.03
2022-12-23T08:15:37.170Z,99519.31
2022-12-23T08:16:43.639Z,99505.97
2022-12-23T08:17:45.893Z,99513.22
2022-12-23T08:18:47.352Z,99509.91
2022-12-23T08:19:49.183Z,99508.19
2022-12-23T08:21:11.909Z,99505.66
2022-12-23T08:22:13.441Z,99499.78
2022-12-23T08:23:18.683Z,99502.03
2022-12-23T08:24:22.944Z,99510.53
2022-12-23T08:25:24.499Z,99519.22
2022-12-23T08:26:26.024Z,99506.88
2022-12-23T08:27:27.506Z,99500.75
2022-12-23T08:28:29.048Z,99504.09
2022-12-23T08:29:35.988Z,99506.72
2022-12-23T08:30:37.994Z,99520.13
2022-12-23T08:31:39.479Z,99527.09
2022-12-23T08:32:40.967Z,99525.66
2022-12-23T08:33:42.829Z,99525.88
2022-12-23T08:34:44.318Z,99528.38
2022-12-23T08:35:45.849Z,99526.19
2022-12-23T08:36:47.393Z,99535.63
2022-12-23T08:37:48.884Z,99527.78
2022-12-23T08:38:51.130Z,99535.28
2022-12-23T08:39:52.648Z,99533.00
2022-12-23T08:40:54.466Z,99541.09
2022-12-23T08:41:56.098Z,99534.06
2022-12-23T08:42:57.569Z,99534.88
2022-12-23T08:43:59.077Z,99534.00
2022-12-23T08:45:00.981Z,99534.81
2022-12-23T08:46:02.575Z,99536.78
2022-12-23T08:47:04.095Z,99539.28
2022-12-23T08:48:06.023Z,99538.16
2022-12-23T08:49:07.548Z,99538.69
2022-12-23T08:50:09.173Z,99534.75
2022-12-23T08:51:11.664Z,99531.63
2022-12-23T08:52:13.241Z,99530.22
2022-12-23T08:53:15.868Z,99539.72
2022-12-23T08:54:19.715Z,99529.09
2022-12-23T08:55:21.163Z,99531.94
2022-12-23T08:56:22.865Z,99529.97
2022-12-23T08:57:24.386Z,99537.00
2022-12-23T08:58:25.901Z,99529.22
2022-12-23T08:59:27.436Z,99530.97
2022-12-23T09:00:28.925Z,99541.03
2022-12-23T09:01:31.091Z,99545.50
2022-12-23T09:02:32.835Z,99544.06
2022-12-23T09:03:34.490Z,99548.53
2022-12-23T09:04:36.385Z,99543.44
2022-12-23T09:05:41.250Z,99543.66
2022-12-23T09:06:43.000Z,99543.91
2022-12-23T09:07:44.538Z,99547.56
2022-12-23T09:08:46.012Z,99541.41
2022-12-23T09:09:47.527Z,99540.28
2022-12-23T09:10:48.990Z,99547.03
2022-12-23T09:11:50.481Z,99543.09
2022-12-23T09:12:52.038Z,99547.25
2022-12-23T09:13:53.705Z,99545.81
2022-12-23T09:14:55.201Z,99547.84
2022-12-23T09:15:56.826Z,99547.84
2022-12-23T09:16:58.311Z,99553.69
2022-12-23T09:17:59.822Z,99547.56
2022-12-23T09:19:01.456Z,99547.25
2022-12-23T09:20:03.060Z,99550.88
2022-12-23T09:21:05.601Z,99538.53
2022-12-23T09:22:07.166Z,99544.97
2022-12-23T09:23:08.708Z,99547.78
2022-12-23T09:24:10.697Z,99543.31
2022-12-23T09:25:12.161Z,99542.25
2022-12-23T09:26:17.701Z,99538.69
2022-12-23T09:27:19.169Z,99544.88
2022-12-23T09:28:20.638Z,99542.63
2022-12-23T09:29:22.182Z,99534.75
2022-12-23T09:30:23.657Z,99532.47
2022-12-23T09:31:29.051Z,99539.72
2022-12-23T09:32:34.058Z,99535.00
2022-12-23T09:33:35.707Z,99534.13
2022-12-23T09:34:37.180Z,99529.66
2022-12-23T09:35:38.722Z,99531.88
2022-12-23T09:36:40.495Z,99534.91
2022-12-23T09:37:41.995Z,99524.53
2022-12-23T09:38:43.519Z,99530.13
2022-12-23T09:39:45.036Z,99530.97
2022-12-23T09:40:46.561Z,99521.72
2022-12-23T09:42:05.950Z,99541.66
2022-12-23T09:43:15.072Z,99528.84
2022-12-23T09:44:34.787Z,99534.22
2022-12-23T09:45:51.824Z,99524.97
2022-12-23T09:47:13.261Z,99535.56
2022-12-23T09:48:15.548Z,99524.63
2022-12-23T09:49:19.941Z,99528.16
2022-12-23T09:50:23.592Z,99526.50
2022-12-23T09:51:25.113Z,99519.97
2022-12-23T09:52:43.310Z,99520.50
2022-12-23T09:53:44.777Z,99515.72
2022-12-23T09:54:46.726Z,99521.88
2022-12-23T09:56:08.925Z,99511.56
2022-12-23T09:57:16.139Z,99515.47
2022-12-23T09:58:27.017Z,99515.16
2022-12-23T09:59:31.343Z,99506.44
2022-12-23T10:00:35.866Z,99515.47
2022-12-23T10:01:52.596Z,99509.91
2022-12-23T10:03:12.923Z,99511.06
2022-12-23T10:04:17.464Z,99514.63
2022-12-23T10:05:19.005Z,99510.38
2022-12-23T10:06:22.576Z,99500.00
2022-12-23T10:07:44.239Z,99503.03
2022-12-23T10:08:47.047Z,99500.22
2022-12-23T10:09:49.195Z,99504.38
2022-12-23T10:11:05.221Z,99507.47
2022-12-23T10:12:09.792Z,99501.88
2022-12-23T10:13:21.412Z,99505.59
2022-12-23T10:14:22.839Z,99497.09
2022-12-23T10:15:30.361Z,99503.47
2022-12-23T10:16:49.466Z,99496.13
2022-12-23T10:17:52.024Z,99497.19
2022-12-23T10:18:55.516Z,99504.44
2022-12-23T10:19:57.859Z,99478.47
2022-12-23T10:21:00.476Z,99498.25
2022-12-23T10:22:06.287Z,99494.91
2022-12-23T10:23:15.999Z,99491.53
2022-12-23T10:24:20.250Z,99490.06
2022-12-23T10:25:35.545Z,99498.78
2022-12-23T10:26:39.472Z,99505.53
2022-12-23T10:27:41.443Z,99498.78
2022-12-23T10:28:42.965Z,99495.97
2022-12-23T10:29:44.420Z,99497.34
2022-12-23T10:31:30.614Z,99499.31
2022-12-23T10:32:39.950Z,99501.78
2022-12-23T10:33:51.242Z,99493.38
2022-12-23T10:34:52.778Z,99482.19
2022-12-23T10:36:03.637Z,99484.38
2022-12-23T10:37:23.877Z,99474.41
2022-12-23T10:38:43.987Z,99472.63
2022-12-23T10:39:50.356Z,99462.25
2022-12-23T10:40:57.375Z,99459.13
2022-12-23T10:42:01.330Z,99457.69
2022-12-23T10:43:21.361Z,99450.22
2022-12-23T10:44:26.030Z,99461.13
2022-12-23T10:45:46.131Z,99457.16
2022-12-23T10:47:02.936Z,99443.78
2022-12-23T10:48:23.381Z,99453.53
2022-12-23T10:49:24.858Z,99441.81
2022-12-23T10:50:35.167Z,99445.97
2022-12-23T10:51:36.651Z,99442.63
2022-12-23T10:52:38.374Z,99441.50
2022-12-23T10:53:45.037Z,99446.06
2022-12-23T10:54:46.816Z,99439.94
2022-12-23T10:55:48.295Z,99429.25
2022-12-23T10:56:49.822Z,99424.16
2022-12-23T10:57:51.728Z,99421.47
2022-12-23T10:58:55.176Z,99418.16
2022-12-23T10:59:56.962Z,99421.47
2022-12-23T11:00:59.279Z,99411.69
2022-12-23T11:02:13.501Z,99421.00
2022-12-23T11:03:24.010Z,99418.88
2022-12-23T11:04:30.247Z,99413.91
2022-12-23T11:05:31.732Z,99415.66
2022-12-23T11:06:37.587Z,99420.50
2022-12-23T11:07:44.724Z,99409.28
2022-12-23T11:08:47.106Z,99408.47
2022-12-23T11:09:52.195Z,99404.56
2022-12-23T11:10:54.155Z,99404.56
2022-12-23T11:11:57.327Z,99400.38
2022-12-23T11:12:58.797Z,99391.66
2022-12-23T11:14:00.294Z,99387.81
2022-12-23T11:15:01.811Z,99390.63
2022-12-23T11:16:16.493Z,99385.31
2022-12-23T11:17:19.965Z,99377.75
2022-12-23T11:18:21.507Z,99375.47
2022-12-23T11:19:23.012Z,99378.78
2022-12-23T11:20:24.484Z,99375.41
2022-12-23T11:21:26.398Z,99370.41
2022-12-23T11:22:27.872Z,99362.81
2022-12-23T11:23:30.220Z,99366.69
2022-12-23T11:24:35.360Z,99361.09
2022-12-23T11:25:40.693Z,99353.06
2022-12-23T11:26:43.156Z,99362.63
2022-12-23T11:27:44.887Z,99374.34
2022-12-23T11:28:50.154Z,99372.78
2022-12-23T11:29:51.897Z,99363.75
2022-12-23T11:30:56.692Z,99363.44
2022-12-23T11:31:58.752Z,99370.50
2022-12-23T11:33:00.317Z,99366.34
2022-12-23T11:34:02.713Z,99357.63
2022-12-23T11:35:04.416Z,99363.84
2022-12-23T11:36:15.561Z,99356.59
2022-12-23T11:37:35.685Z,99353.78
2022-12-23T11:38:37.513Z,99353.25
2022-12-23T11:39:45.901Z,99339.78
2022-12-23T11:40:47.965Z,99352.66
2022-12-23T11:41:50.103Z,99349.03
2022-12-23T11:42:58.119Z,99349.94
2022-12-23T11:44:19.870Z,99351.59
2022-12-23T11:45:22.068Z,99344.78
2022-12-23T11:46:28.565Z,99343.13
2022-12-23T11:47:37.366Z,99333.13
2022-12-23T11:48:38.818Z,99330.44
2022-12-23T11:49:44.736Z,99322.34
2022-12-23T11:50:46.238Z,99336.66
2022-12-23T11:51:48.874Z,99329.97
2022-12-23T11:52:51.262Z,99332.25
2022-12-23T11:53:58.859Z,99332.78
2022-12-23T11:55:01.252Z,99324.38
2022-12-23T11:56:13.713Z,99325.44
2022-12-23T11:57:15.833Z,99319.75
2022-12-23T11:58:18.770Z,99314.88
2022-12-23T11:59:36.788Z,99312.81
2022-12-23T12:00:41.549Z,99312.19
2022-12-23T12:01:45.335Z,99311.38
2022-12-23T12:02:47.637Z,99297.88
2022-12-23T12:03:51.136Z,99310.53
2022-12-23T12:05:03.195Z,99295.91
2022-12-23T12:06:05.084Z,99300.59
2022-12-23T12:07:09.598Z,99293.56
2022-12-23T12:08:14.641Z,99286.69
2022-12-23T12:09:16.139Z,99284.41
2022-12-23T12:10:25.779Z,99283.59
2022-12-23T12:11:28.784Z,99288.56
2022-12-23T12:12:30.392Z,99285.78
2022-12-23T12:13:32.005Z,99288.56
2022-12-23T12:14:43.415Z,99288.56
2022-12-23T12:15:46.875Z,99281.91
2022-12-23T12:16:48.466Z,99273.19
2022-12-23T12:17:52.008Z,99273.19
2022-12-23T12:18:55.902Z,99261.16
2022-12-23T12:20:14.836Z,99265.34
2022-12-23T12:21:17.458Z,99265.94
2022-12-23T12:22:25.120Z,99259.09
2022-12-23T12:23:26.683Z,99263.84
2022-12-23T12:24:39.183Z,99254.84
2022-12-23T12:25:40.767Z,99250.78
2022-12-23T12:26:42.884Z,99248.72
2022-12-23T12:27:45.664Z,99240.00
2022-12-23T12:28:47.982Z,99246.75
2022-12-23T12:29:52.836Z,99232.25
2022-12-23T12:30:58.724Z,99241.78
2022-12-23T12:32:00.415Z,99234.41
2022-12-23T12:33:15.915Z,99222.19
2022-12-23T12:34:36.088Z,99232.97
2022-12-23T12:35:44.646Z,99231.00
2022-12-23T12:36:49.142Z,99220.31
2022-12-23T12:38:01.664Z,99224.44
2022-12-23T12:39:03.185Z,99226.53